createdAt,value
2019-02-24T01:36:36.472Z,0.00
2019-02-24T01:37:27.964Z,0.00
2019-02-24T01:39:31.991Z,0.00
2019-02-24T01:40:32.014Z,0.00
2019-02-24T01:42:36.068Z,0.00
2019-02-24T01:43:36.058Z,0.00
2019-02-24T01:45:40.079Z,0.00
2019-02-24T01:46:40.099Z,0.00
2019-02-24T01:48:33.040Z,0.00
2019-02-24T01:49:33.063Z,0.00
2019-02-24T01:51:37.082Z,0.00
2019-02-24T01:52:37.113Z,0.00
2019-02-24T01:54:41.157Z,0.00
2019-02-24T01:55:41.146Z,0.00
2019-02-24T01:57:45.165Z,0.00
2019-02-24T01:58:45.192Z,0.00
2019-02-24T02:00:49.240Z,0.00
2019-02-24T02:01:49.231Z,0.00
2019-02-24T02:03:53.249Z,0.00
2019-02-24T02:04:53.273Z,0.00
2019-02-24T02:06:57.402Z,0.00
2019-02-24T02:07:57.321Z,0.00
2019-02-24T02:10:01.340Z,0.00
2019-02-24T02:11:01.369Z,0.00
2019-02-24T02:13:05.409Z,0.00
2019-02-24T02:14:05.402Z,0.00
2019-02-24T02:16:09.422Z,0.00
2019-02-24T02:17:09.447Z,0.00
2019-02-24T02:19:13.510Z,0.00
2019-02-24T02:20:13.488Z,0.00
2019-02-24T02:22:17.508Z,0.00
2019-02-24T02:23:17.531Z,0.00
2019-02-24T02:25:21.656Z,0.00
2019-02-24T02:26:21.573Z,0.00
2019-02-24T02:28:14.512Z,0.00
2019-02-24T02:29:14.541Z,0.00
2019-02-24T02:31:18.569Z,0.00
2019-02-24T02:32:18.577Z,0.00
2019-02-24T02:34:22.598Z,0.00
2019-02-24T02:35:22.636Z,0.00
2019-02-24T02:37:26.750Z,0.00
2019-02-24T02:38:26.658Z,0.00
2019-02-24T02:40:30.676Z,0.00
2019-02-24T02:41:30.705Z,0.00
2019-02-24T02:43:34.735Z,0.00
2019-02-24T02:44:34.740Z,0.00
2019-02-24T02:46:38.758Z,0.00
2019-02-24T02:47:38.785Z,0.00
2019-02-24T02:49:42.853Z,0.00
2019-02-24T02:50:42.831Z,0.00
2019-02-24T02:52:46.854Z,0.00
2019-02-24T02:53:46.867Z,0.00
2019-02-24T02:55:51.244Z,0.00
2019-02-24T02:56:50.911Z,0.00
2019-02-24T02:58:54.939Z,0.00
2019-02-24T02:59:54.950Z,0.00
2019-02-24T03:01:59.083Z,0.00
2019-02-24T03:02:58.992Z,0.00
2019-02-24T03:05:03.008Z,0.00
2019-02-24T03:06:03.029Z,0.00
2019-02-24T03:07:55.989Z,0.00
2019-02-24T03:08:55.998Z,0.00
2019-02-24T03:11:00.014Z,0.00
2019-02-24T03:12:00.036Z,0.00
2019-02-24T03:14:04.057Z,0.00
2019-02-24T03:15:04.079Z,0.00
2019-02-24T03:17:08.095Z,0.00
2019-02-24T03:18:08.115Z,0.00
2019-02-24T03:20:12.132Z,0.00
2019-02-24T03:21:12.156Z,0.00
2019-02-24T03:23:16.174Z,0.00
2019-02-24T03:24:16.196Z,0.00
2019-02-24T03:26:20.214Z,0.00
2019-02-24T03:27:20.238Z,0.00
2019-02-24T03:29:24.272Z,0.00
2019-02-24T03:30:24.296Z,0.00
2019-02-24T03:32:28.348Z,0.00
2019-02-24T03:33:28.379Z,0.00
2019-02-24T03:35:32.443Z,0.00
2019-02-24T03:36:32.467Z,0.00
2019-02-24T03:38:25.421Z,0.00
2019-02-24T03:39:25.437Z,0.00
2019-02-24T03:41:29.449Z,0.00
2019-02-24T03:42:29.470Z,0.00
2019-02-24T03:44:33.502Z,0.00
2019-02-24T03:45:33.515Z,0.00
2019-02-24T03:47:37.528Z,0.00
2019-02-24T03:48:37.553Z,0.00
2019-02-24T03:50:41.572Z,0.00
2019-02-24T03:51:41.600Z,0.00
2019-02-24T03:53:45.615Z,0.00
2019-02-24T03:54:45.635Z,0.00
2019-02-24T03:56:49.687Z,0.00
2019-02-24T03:57:49.676Z,0.00
2019-02-24T03:59:51.678Z,0.00
2019-02-24T04:00:51.707Z,0.00
2019-02-24T04:02:53.750Z,0.00
2019-02-24T04:03:53.742Z,0.00
2019-02-24T04:05:55.731Z,0.00
2019-02-24T04:06:55.753Z,0.00
2019-02-24T04:08:57.866Z,0.00
2019-02-24T04:09:57.777Z,0.00
2019-02-24T04:11:59.777Z,0.00
2019-02-24T04:12:59.799Z,0.00
2019-02-24T04:15:01.906Z,0.00
2019-02-24T04:16:01.824Z,0.00
2019-02-24T04:17:53.757Z,0.00
2019-02-24T04:18:53.778Z,0.00
2019-02-24T04:20:55.817Z,0.00
2019-02-24T04:21:55.824Z,0.00
2019-02-24T04:23:57.911Z,0.00
2019-02-24T04:24:57.934Z,0.00
2019-02-24T04:27:00.044Z,0.00
2019-02-24T04:27:59.956Z,0.00
2019-02-24T04:30:02.991Z,0.00
2019-02-24T04:31:03.010Z,0.00
2019-02-24T04:33:05.032Z,0.00
2019-02-24T04:34:05.034Z,0.00
2019-02-24T04:36:07.033Z,0.00
2019-02-24T04:37:07.059Z,0.00
2019-02-24T04:39:09.083Z,0.00
2019-02-24T04:40:09.083Z,0.00
2019-02-24T04:42:11.080Z,0.00
2019-02-24T04:43:11.112Z,0.00
2019-02-24T04:45:13.222Z,0.00
2019-02-24T04:46:13.141Z,0.00
2019-02-24T04:48:05.083Z,0.00
2019-02-24T04:49:05.096Z,0.00
2019-02-24T04:51:07.201Z,0.00
2019-02-24T04:52:07.117Z,0.00
2019-02-24T04:54:09.117Z,0.00
2019-02-24T04:55:09.138Z,0.00
2019-02-24T04:57:11.165Z,0.00
2019-02-24T04:58:11.164Z,0.00
2019-02-24T05:00:13.166Z,0.00
2019-02-24T05:01:13.194Z,0.00
2019-02-24T05:03:15.572Z,0.00
2019-02-24T05:04:15.217Z,0.00
2019-02-24T05:06:17.218Z,0.00
2019-02-24T05:07:17.242Z,0.00
2019-02-24T05:09:19.264Z,0.00
2019-02-24T05:10:19.266Z,0.00
2019-02-24T05:12:21.266Z,0.00
2019-02-24T05:13:21.290Z,0.00
2019-02-24T05:15:13.433Z,0.00
2019-02-24T05:16:13.441Z,0.00
2019-02-24T05:18:05.367Z,0.00
2019-02-24T05:19:05.421Z,0.00
2019-02-24T05:21:07.509Z,0.00
2019-02-24T05:22:07.417Z,0.00
2019-02-24T05:24:09.418Z,0.00
2019-02-24T05:25:09.440Z,0.00
2019-02-24T05:27:11.546Z,0.00
2019-02-24T05:28:11.463Z,0.00
2019-02-24T05:30:13.465Z,0.00
2019-02-24T05:31:13.485Z,0.00
2019-02-24T05:33:15.526Z,0.00
2019-02-24T05:34:15.512Z,0.00
2019-02-24T05:36:17.515Z,0.00
2019-02-24T05:37:17.535Z,0.00
2019-02-24T05:39:19.568Z,0.00
2019-02-24T05:40:19.558Z,0.00
2019-02-24T05:42:21.561Z,0.00
2019-02-24T05:43:21.583Z,0.00
2019-02-24T05:45:23.607Z,0.00
2019-02-24T05:46:23.614Z,0.00
2019-02-24T05:48:15.546Z,0.00
2019-02-24T05:49:15.565Z,0.00
2019-02-24T05:51:17.611Z,0.00
2019-02-24T05:52:17.589Z,0.00
2019-02-24T05:54:19.590Z,0.00
2019-02-24T05:55:19.612Z,0.00
2019-02-24T05:57:21.646Z,0.00
2019-02-24T05:58:21.634Z,0.00
2019-02-24T06:00:23.636Z,0.00
2019-02-24T06:01:23.659Z,0.00
2019-02-24T06:03:25.692Z,0.00
2019-02-24T06:04:25.681Z,0.00
2019-02-24T06:06:27.682Z,0.00
2019-02-24T06:07:27.705Z,0.00
2019-02-24T06:09:29.743Z,0.00
2019-02-24T06:10:29.749Z,0.00
2019-02-24T06:12:31.749Z,0.00
2019-02-24T06:13:31.783Z,0.00
2019-02-24T06:15:34.135Z,0.00
2019-02-24T06:16:33.796Z,0.00
2019-02-24T06:18:25.723Z,0.00
2019-02-24T06:19:25.748Z,0.00
2019-02-24T06:21:27.783Z,0.00
2019-02-24T06:22:27.787Z,0.00
2019-02-24T06:24:29.787Z,0.00
2019-02-24T06:25:29.812Z,0.00
2019-02-24T06:27:31.842Z,0.00
2019-02-24T06:28:31.834Z,0.00
2019-02-24T06:30:33.835Z,0.00
2019-02-24T06:31:33.856Z,0.00
2019-02-24T06:33:35.901Z,0.00
2019-02-24T06:34:35.883Z,0.00
2019-02-24T06:36:37.881Z,0.00
2019-02-24T06:37:37.902Z,0.00
2019-02-24T06:39:39.929Z,0.00
2019-02-24T06:40:39.930Z,0.00
2019-02-24T06:42:41.927Z,0.00
2019-02-24T06:43:41.950Z,0.00
2019-02-24T06:45:44.312Z,0.00
2019-02-24T06:46:43.978Z,0.00
2019-02-24T06:48:35.906Z,0.00
2019-02-24T06:49:35.927Z,0.00
2019-02-24T06:51:38.067Z,0.00
2019-02-24T06:52:37.978Z,0.00
2019-02-24T06:54:40.000Z,0.00
2019-02-24T06:55:40.024Z,0.00
2019-02-24T06:57:42.076Z,0.00
2019-02-24T06:58:42.070Z,0.00
2019-02-24T07:00:44.098Z,0.00
2019-02-24T07:01:44.098Z,0.00
2019-02-24T07:03:46.122Z,0.00
2019-02-24T07:04:46.122Z,0.00
2019-02-24T07:06:48.124Z,0.00
2019-02-24T07:07:48.146Z,0.00
2019-02-24T07:09:50.150Z,5.63
2019-02-24T07:10:50.173Z,5.63
2019-02-24T07:12:52.199Z,5.63
2019-02-24T07:13:52.224Z,5.63
2019-02-24T07:15:54.227Z,5.63
2019-02-24T07:16:54.252Z,5.63
2019-02-24T07:18:56.361Z,5.63
2019-02-24T07:19:56.277Z,5.63
2019-02-24T07:21:58.279Z,5.63
2019-02-24T07:22:58.304Z,5.63
2019-02-24T07:25:00.346Z,5.63
2019-02-24T07:26:00.331Z,5.63
2019-02-24T07:27:52.260Z,5.63
2019-02-24T07:28:52.285Z,5.63
2019-02-24T07:30:54.401Z,11.25
2019-02-24T07:31:54.313Z,11.25
2019-02-24T07:33:56.310Z,11.25
2019-02-24T07:34:56.337Z,11.25
2019-02-24T07:36:58.353Z,11.25
2019-02-24T07:37:58.363Z,11.25
2019-02-24T07:40:00.372Z,11.25
2019-02-24T07:41:00.393Z,11.25
2019-02-24T07:43:02.399Z,11.25
2019-02-24T07:44:02.421Z,11.25
2019-02-24T07:46:04.423Z,11.25
2019-02-24T07:47:04.445Z,11.25
2019-02-24T07:49:06.447Z,11.25
2019-02-24T07:50:06.472Z,11.25
2019-02-24T07:52:08.488Z,11.25
2019-02-24T07:53:08.497Z,11.25
2019-02-24T07:55:10.498Z,11.25
2019-02-24T07:56:10.523Z,11.25
2019-02-24T07:58:02.461Z,11.25
2019-02-24T07:59:02.479Z,11.25
2019-02-24T08:01:04.840Z,16.88
2019-02-24T08:02:04.507Z,16.88
2019-02-24T08:04:06.508Z,16.88
2019-02-24T08:05:06.537Z,16.88
2019-02-24T08:07:08.538Z,16.88
2019-02-24T08:08:16.228Z,16.88
2019-02-24T08:10:10.568Z,16.88
2019-02-24T08:11:10.595Z,16.88
2019-02-24T08:13:12.627Z,16.88
2019-02-24T08:14:12.620Z,16.88
2019-02-24T08:16:14.624Z,22.50
2019-02-24T08:17:14.642Z,16.88
2019-02-24T08:19:16.676Z,22.50
2019-02-24T08:20:16.672Z,22.50
2019-02-24T08:22:18.673Z,22.50
2019-02-24T08:23:18.697Z,22.50
2019-02-24T08:25:20.733Z,22.50
2019-02-24T08:26:20.726Z,22.50
2019-02-24T08:28:12.665Z,28.13
2019-02-24T08:29:12.686Z,28.13
2019-02-24T08:31:15.042Z,28.13
2019-02-24T08:32:14.712Z,28.13
2019-02-24T08:34:16.719Z,33.75
2019-02-24T08:35:16.747Z,33.75
2019-02-24T08:37:18.859Z,33.75
2019-02-24T08:38:18.773Z,39.38
2019-02-24T08:40:20.773Z,39.38
2019-02-24T08:41:20.797Z,39.38
2019-02-24T08:43:22.828Z,45.00
2019-02-24T08:44:22.826Z,39.38
2019-02-24T08:46:24.826Z,50.63
2019-02-24T08:47:24.851Z,50.63
2019-02-24T08:49:26.884Z,45.00
2019-02-24T08:50:26.884Z,45.00
2019-02-24T08:52:28.887Z,45.00
2019-02-24T08:53:28.909Z,45.00
2019-02-24T08:55:30.917Z,39.38
2019-02-24T08:56:30.949Z,39.38
2019-02-24T08:58:22.878Z,39.38
2019-02-24T08:59:22.900Z,39.38
2019-02-24T09:01:24.926Z,39.38
2019-02-24T09:02:24.928Z,39.38
2019-02-24T09:04:26.933Z,45.00
2019-02-24T09:05:26.956Z,45.00
2019-02-24T09:07:28.960Z,56.25
2019-02-24T09:08:28.985Z,73.13
2019-02-24T09:10:31.012Z,247.50
2019-02-24T09:11:31.016Z,298.13
2019-02-24T09:13:33.020Z,264.38
2019-02-24T09:14:33.048Z,208.13
2019-02-24T09:16:35.074Z,146.25
2019-02-24T09:17:35.078Z,135.00
2019-02-24T09:19:37.096Z,106.88
2019-02-24T09:20:37.113Z,95.63
2019-02-24T09:22:39.146Z,84.38
2019-02-24T09:23:39.151Z,78.75
2019-02-24T09:25:41.516Z,67.50
2019-02-24T09:26:41.179Z,61.88
2019-02-24T09:28:33.119Z,67.50
2019-02-24T09:29:33.141Z,61.88
2019-02-24T09:31:35.168Z,56.25
2019-02-24T09:32:35.173Z,56.25
2019-02-24T09:34:37.184Z,50.63
2019-02-24T09:35:37.210Z,50.63
2019-02-24T09:37:40.391Z,50.63
2019-02-24T09:38:40.378Z,50.63
2019-02-24T09:40:44.405Z,50.63
2019-02-24T09:41:44.429Z,50.63
2019-02-24T09:43:48.471Z,50.63
2019-02-24T09:44:48.491Z,50.63
2019-02-24T09:46:52.506Z,50.63
2019-02-24T09:47:52.532Z,50.63
2019-02-24T09:49:56.607Z,50.63
2019-02-24T09:50:56.585Z,50.63
2019-02-24T09:53:00.612Z,50.63
2019-02-24T09:54:00.636Z,50.63
2019-02-24T09:56:04.662Z,50.63
2019-02-24T09:57:04.692Z,50.63
2019-02-24T09:59:08.719Z,50.63
2019-02-24T10:00:08.746Z,50.63
2019-02-24T10:02:12.822Z,50.63
2019-02-24T10:03:12.809Z,50.63
2019-02-24T10:05:16.846Z,50.63
2019-02-24T10:06:16.861Z,50.63
2019-02-24T10:08:09.844Z,73.13
2019-02-24T10:09:09.851Z,106.88
2019-02-24T10:11:13.879Z,444.38
2019-02-24T10:12:13.906Z,680.63
2019-02-24T10:14:17.939Z,849.38
2019-02-24T10:15:17.970Z,905.63
2019-02-24T10:17:21.998Z,1001.25
2019-02-24T10:18:22.031Z,1040.63
2019-02-24T10:20:26.065Z,1051.88
2019-02-24T10:21:26.093Z,1051.88
2019-02-24T10:23:30.133Z,1085.63
2019-02-24T10:24:30.160Z,1080.00
2019-02-24T10:26:34.203Z,1068.75
2019-02-24T10:27:34.232Z,1080.00
2019-02-24T10:29:38.275Z,1096.88
2019-02-24T10:30:38.307Z,1096.88
2019-02-24T10:32:42.351Z,1141.88
2019-02-24T10:33:42.386Z,1153.13
2019-02-24T10:35:46.434Z,1158.75
2019-02-24T10:36:46.470Z,1108.13
2019-02-24T10:38:39.471Z,1096.88
2019-02-24T10:39:39.476Z,1096.88
2019-02-24T10:41:43.530Z,1080.00
2019-02-24T10:42:43.567Z,1080.00
2019-02-24T10:44:47.623Z,1080.00
2019-02-24T10:45:47.661Z,1080.00
2019-02-24T10:47:51.716Z,1096.88
2019-02-24T10:48:51.758Z,1096.88
2019-02-24T10:50:55.833Z,1085.63
2019-02-24T10:51:55.853Z,1096.88
2019-02-24T10:53:59.909Z,1074.38
2019-02-24T10:54:59.952Z,1074.38
2019-02-24T10:57:04.033Z,1074.38
2019-02-24T10:58:04.055Z,1063.13
2019-02-24T11:00:08.116Z,1051.88
2019-02-24T11:01:08.157Z,1057.50
2019-02-24T11:03:12.238Z,1063.13
2019-02-24T11:04:12.260Z,1074.38
2019-02-24T11:06:16.321Z,1068.75
2019-02-24T11:07:16.364Z,1080.00
2019-02-24T11:09:20.452Z,1102.50
2019-02-24T11:10:20.497Z,1096.88
2019-02-24T11:12:24.562Z,1063.13
2019-02-24T11:13:24.604Z,1046.25
2019-02-24T11:15:28.684Z,1035.00
2019-02-24T11:16:28.711Z,1051.88
2019-02-24T11:18:21.693Z,1096.88
2019-02-24T11:19:21.738Z,1096.88
2019-02-24T11:21:25.807Z,1057.50
2019-02-24T11:22:25.852Z,1051.88
2019-02-24T11:23:25.895Z,1080.00
2019-02-24T11:24:25.946Z,1091.25
2019-02-24T11:25:25.997Z,1085.63
2019-02-24T11:26:26.041Z,1102.50
2019-02-24T11:27:26.092Z,1113.75
2019-02-24T11:28:26.140Z,1096.88
2019-02-24T11:29:26.190Z,1091.25
2019-02-24T11:30:26.238Z,1108.13
2019-02-24T11:31:26.287Z,1108.13
2019-02-24T11:32:26.338Z,1113.75
2019-02-24T11:33:26.387Z,1102.50
2019-02-24T11:34:26.435Z,1108.13
2019-02-24T11:35:26.485Z,1119.38
2019-02-24T11:36:26.534Z,1085.63
2019-02-24T11:37:26.583Z,1102.50
2019-02-24T11:38:26.633Z,1096.88
2019-02-24T11:39:26.685Z,1074.38
2019-02-24T11:40:26.731Z,1080.00
2019-02-24T11:41:26.782Z,1085.63
2019-02-24T11:42:26.829Z,1080.00
2019-02-24T11:43:26.880Z,1074.38
2019-02-24T11:44:26.930Z,1074.38
2019-02-24T11:45:26.980Z,1068.75
2019-02-24T11:46:27.134Z,1080.00
2019-02-24T11:47:27.080Z,1040.63
2019-02-24T11:48:27.128Z,1018.13
2019-02-24T11:49:27.179Z,973.13
2019-02-24T11:50:27.227Z,933.75
2019-02-24T11:51:27.291Z,770.63
2019-02-24T11:52:27.328Z,781.88
2019-02-24T11:53:27.377Z,950.63
2019-02-24T11:54:27.427Z,1001.25
2019-02-24T11:55:27.477Z,1018.13
2019-02-24T11:56:27.527Z,1035.00
2019-02-24T11:57:27.575Z,1029.38
2019-02-24T11:58:27.628Z,1018.13
2019-02-24T11:59:27.674Z,1018.13
2019-02-24T12:00:27.725Z,1006.88
2019-02-24T12:01:27.778Z,1029.38
2019-02-24T12:02:34.215Z,1006.88
2019-02-24T12:03:27.875Z,978.75
2019-02-24T12:04:27.925Z,973.13
2019-02-24T12:05:27.976Z,973.13
2019-02-24T12:06:28.023Z,939.38
2019-02-24T12:07:28.073Z,939.38
2019-02-24T12:08:28.122Z,928.13
2019-02-24T12:09:28.172Z,928.13
2019-02-24T12:10:28.220Z,995.63
2019-02-24T12:11:28.273Z,984.38
2019-02-24T12:12:28.322Z,956.25
2019-02-24T12:13:28.372Z,939.38
2019-02-24T12:14:28.421Z,945.00
2019-02-24T12:15:28.469Z,956.25
2019-02-24T12:16:28.525Z,956.25
2019-02-24T12:17:28.572Z,956.25
2019-02-24T12:18:28.618Z,950.63
2019-02-24T12:19:28.668Z,928.13
2019-02-24T12:20:28.718Z,922.50
2019-02-24T12:21:28.791Z,905.63
2019-02-24T12:22:28.818Z,883.13
2019-02-24T12:23:28.867Z,860.63
2019-02-24T12:24:28.917Z,849.38
2019-02-24T12:25:28.971Z,860.63
2019-02-24T12:26:29.017Z,855.00
2019-02-24T12:27:29.068Z,866.25
2019-02-24T12:28:29.123Z,871.88
2019-02-24T12:29:29.169Z,843.75
2019-02-24T12:30:29.216Z,821.25
2019-02-24T12:31:29.267Z,821.25
2019-02-24T12:32:29.318Z,832.50
2019-02-24T12:33:29.367Z,815.63
2019-02-24T12:34:29.416Z,804.38
2019-02-24T12:35:29.470Z,798.75
2019-02-24T12:36:29.518Z,798.75
2019-02-24T12:37:29.567Z,804.38
2019-02-24T12:38:29.617Z,798.75
2019-02-24T12:39:29.668Z,770.63
2019-02-24T12:40:29.718Z,787.50
2019-02-24T12:41:29.770Z,781.88
2019-02-24T12:42:29.818Z,793.13
2019-02-24T12:43:29.870Z,793.13
2019-02-24T12:44:29.918Z,798.75
2019-02-24T12:45:29.969Z,804.38
2019-02-24T12:46:30.019Z,781.88
2019-02-24T12:47:30.071Z,765.00
2019-02-24T12:48:30.126Z,765.00
2019-02-24T12:49:30.170Z,776.25
2019-02-24T12:50:30.220Z,770.63
2019-02-24T12:51:30.271Z,765.00
2019-02-24T12:52:30.322Z,753.75
2019-02-24T12:53:30.372Z,708.75
2019-02-24T12:54:30.421Z,697.50
2019-02-24T12:55:30.472Z,697.50
2019-02-24T12:56:30.525Z,720.00
2019-02-24T12:57:30.573Z,748.13
2019-02-24T12:58:30.623Z,765.00
2019-02-24T12:59:30.674Z,821.25
2019-02-24T13:00:30.726Z,860.63
2019-02-24T13:01:30.776Z,894.38
2019-02-24T13:02:30.826Z,916.88
2019-02-24T13:03:30.883Z,916.88
2019-02-24T13:04:30.928Z,928.13
2019-02-24T13:05:30.979Z,939.38
2019-02-24T13:06:31.032Z,939.38
2019-02-24T13:07:31.084Z,928.13
2019-02-24T13:08:31.133Z,922.50
2019-02-24T13:09:31.184Z,900.00
2019-02-24T13:10:31.236Z,866.25
2019-02-24T13:11:31.287Z,905.63
2019-02-24T13:12:31.338Z,900.00
2019-02-24T13:13:31.391Z,855.00
2019-02-24T13:14:31.441Z,843.75
2019-02-24T13:15:31.493Z,911.25
2019-02-24T13:16:31.544Z,945.00
2019-02-24T13:17:31.597Z,866.25
2019-02-24T13:18:31.648Z,1006.88
2019-02-24T13:19:31.699Z,1040.63
2019-02-24T13:20:31.753Z,1046.25
2019-02-24T13:21:31.803Z,1029.38
2019-02-24T13:22:31.859Z,1006.88
2019-02-24T13:23:31.907Z,1006.88
2019-02-24T13:24:31.958Z,1006.88
2019-02-24T13:25:32.009Z,1018.13
2019-02-24T13:26:32.061Z,995.63
2019-02-24T13:27:32.115Z,995.63
2019-02-24T13:28:32.166Z,995.63
2019-02-24T13:29:32.226Z,995.63
2019-02-24T13:30:32.269Z,1018.13
2019-02-24T13:31:32.323Z,1051.88
2019-02-24T13:32:32.372Z,1046.25
2019-02-24T13:33:32.424Z,1018.13
2019-02-24T13:34:32.478Z,1006.88
2019-02-24T13:35:32.526Z,1006.88
2019-02-24T13:36:32.578Z,1023.75
2019-02-24T13:37:32.632Z,1051.88
2019-02-24T13:38:32.682Z,1063.13
2019-02-24T13:39:32.736Z,1057.50
2019-02-24T13:40:32.786Z,1091.25
2019-02-24T13:41:32.839Z,1130.63
2019-02-24T13:42:32.888Z,1158.75
2019-02-24T13:43:32.941Z,1215.00
2019-02-24T13:44:32.996Z,1248.75
2019-02-24T13:45:33.044Z,1265.63
2019-02-24T13:46:33.097Z,1321.88
2019-02-24T13:47:33.148Z,1344.38
2019-02-24T13:48:33.198Z,1333.13
2019-02-24T13:49:33.250Z,1299.38
2019-02-24T13:50:33.306Z,1243.13
2019-02-24T13:51:33.353Z,1215.00
2019-02-24T13:52:33.404Z,1164.38
2019-02-24T13:53:33.456Z,1136.25
2019-02-24T13:54:33.507Z,1096.88
2019-02-24T13:55:33.567Z,1057.50
2019-02-24T13:56:33.610Z,1018.13
2019-02-24T13:57:33.661Z,973.13
2019-02-24T13:58:33.713Z,950.63
2019-02-24T13:59:33.764Z,911.25
2019-02-24T14:00:33.816Z,900.00
2019-02-24T14:01:33.869Z,894.38
2019-02-24T14:02:33.917Z,900.00
2019-02-24T14:03:33.973Z,894.38
2019-02-24T14:04:34.019Z,871.88
2019-02-24T14:05:34.072Z,877.50
2019-02-24T14:06:34.134Z,866.25
2019-02-24T14:07:34.209Z,838.13
2019-02-24T14:08:34.225Z,804.38
2019-02-24T14:09:34.275Z,781.88
2019-02-24T14:10:34.325Z,753.75
2019-02-24T14:11:34.375Z,731.25
2019-02-24T14:12:34.427Z,714.38
2019-02-24T14:13:34.479Z,708.75
2019-02-24T14:14:34.527Z,720.00
2019-02-24T14:15:34.580Z,708.75
2019-02-24T14:16:34.632Z,703.13
2019-02-24T14:17:34.680Z,691.88
2019-02-24T14:18:34.731Z,675.00
2019-02-24T14:19:34.780Z,680.63
2019-02-24T14:20:34.830Z,663.75
2019-02-24T14:21:34.882Z,663.75
2019-02-24T14:22:34.931Z,663.75
2019-02-24T14:23:34.980Z,658.13
2019-02-24T14:24:35.032Z,646.88
2019-02-24T14:25:35.081Z,641.25
2019-02-24T14:26:35.131Z,630.00
2019-02-24T14:27:35.182Z,618.75
2019-02-24T14:28:35.230Z,618.75
2019-02-24T14:29:35.280Z,613.13
2019-02-24T14:30:35.331Z,613.13
2019-02-24T14:31:35.379Z,607.50
2019-02-24T14:32:35.428Z,607.50
2019-02-24T14:33:35.477Z,585.00
2019-02-24T14:34:35.527Z,585.00
2019-02-24T14:35:35.576Z,573.75
2019-02-24T14:36:35.625Z,568.13
2019-02-24T14:37:35.675Z,568.13
2019-02-24T14:38:35.726Z,562.50
2019-02-24T14:39:35.772Z,551.25
2019-02-24T14:40:35.822Z,95.63
2019-02-24T14:41:35.869Z,478.13
2019-02-24T14:42:35.916Z,416.25
2019-02-24T14:43:35.965Z,337.50
2019-02-24T14:44:36.014Z,213.75
2019-02-24T14:45:36.063Z,123.75
2019-02-24T14:46:36.112Z,101.25
2019-02-24T14:47:36.158Z,95.63
2019-02-24T14:48:36.234Z,84.38
2019-02-24T14:49:36.253Z,78.75
2019-02-24T14:50:36.301Z,73.13
2019-02-24T14:51:36.348Z,73.13
2019-02-24T14:52:36.394Z,67.50
2019-02-24T14:53:36.440Z,67.50
2019-02-24T14:54:36.488Z,67.50
2019-02-24T14:55:36.531Z,67.50
2019-02-24T14:56:36.577Z,61.88
2019-02-24T14:57:36.622Z,61.88
2019-02-24T14:58:36.667Z,61.88
2019-02-24T14:59:36.851Z,61.88
2019-02-24T15:00:36.755Z,61.88
2019-02-24T15:01:36.800Z,56.25
2019-02-24T15:02:42.359Z,56.25
2019-02-24T15:03:36.930Z,56.25
2019-02-24T15:04:36.933Z,56.25
2019-02-24T15:05:36.974Z,56.25
2019-02-24T15:06:37.017Z,50.63
2019-02-24T15:07:37.059Z,50.63
2019-02-24T15:08:37.101Z,50.63
2019-02-24T15:09:37.144Z,50.63
2019-02-24T15:10:37.185Z,45.00
2019-02-24T15:11:37.227Z,45.00
2019-02-24T15:12:37.272Z,45.00
2019-02-24T15:13:37.312Z,45.00
2019-02-24T15:14:37.351Z,39.38
2019-02-24T15:15:37.392Z,39.38
2019-02-24T15:16:37.433Z,39.38
2019-02-24T15:17:37.474Z,39.38
2019-02-24T15:18:37.521Z,33.75
2019-02-24T15:19:37.557Z,33.75
2019-02-24T15:20:37.596Z,33.75
2019-02-24T15:21:37.638Z,33.75
2019-02-24T15:22:37.675Z,33.75
2019-02-24T15:23:37.720Z,33.75
2019-02-24T15:24:37.756Z,28.13
2019-02-24T15:25:37.796Z,28.13
2019-02-24T15:26:37.835Z,28.13
2019-02-24T15:27:37.874Z,28.13
2019-02-24T15:28:37.913Z,22.50
2019-02-24T15:29:37.975Z,22.50
2019-02-24T15:30:37.991Z,22.50
2019-02-24T15:31:38.029Z,22.50
2019-02-24T15:32:38.069Z,22.50
2019-02-24T15:33:38.111Z,16.88
2019-02-24T15:34:38.145Z,16.88
2019-02-24T15:35:38.186Z,16.88
2019-02-24T15:36:38.222Z,16.88
2019-02-24T15:37:38.260Z,16.88
2019-02-24T15:38:38.301Z,16.88
2019-02-24T15:39:38.337Z,16.88
2019-02-24T15:40:38.383Z,16.88
2019-02-24T15:41:38.412Z,16.88
2019-02-24T15:42:38.449Z,16.88
2019-02-24T15:43:38.489Z,16.88
2019-02-24T15:44:38.527Z,16.88
2019-02-24T15:45:38.563Z,16.88
2019-02-24T15:46:38.602Z,16.88
2019-02-24T15:47:38.640Z,11.25
2019-02-24T15:48:38.676Z,11.25
2019-02-24T15:49:38.715Z,11.25
2019-02-24T15:50:38.755Z,11.25
2019-02-24T15:51:38.789Z,11.25
2019-02-24T15:52:38.824Z,11.25
2019-02-24T15:53:38.862Z,11.25
2019-02-24T15:54:38.898Z,11.25
2019-02-24T15:55:38.938Z,11.25
2019-02-24T15:56:38.973Z,11.25
2019-02-24T15:57:39.011Z,11.25
2019-02-24T15:58:46.240Z,11.25
2019-02-24T16:00:43.565Z,11.25
2019-02-24T16:01:43.116Z,11.25
2019-02-24T16:03:46.159Z,11.25
2019-02-24T16:04:46.193Z,11.25
2019-02-24T16:06:49.457Z,5.63
2019-02-24T16:07:49.476Z,5.63
2019-02-24T16:09:42.431Z,5.63
2019-02-24T16:10:42.463Z,5.63
2019-02-24T16:12:46.520Z,5.63
2019-02-24T16:13:46.534Z,5.63
2019-02-24T16:15:50.570Z,5.63
2019-02-24T16:16:50.603Z,5.63
2019-02-24T16:18:53.841Z,0.00
2019-02-24T16:19:53.876Z,0.00
2019-02-24T16:21:57.908Z,0.00
2019-02-24T16:22:57.944Z,0.00
2019-02-24T16:25:01.165Z,0.00
2019-02-24T16:26:01.178Z,0.00
2019-02-24T16:28:04.271Z,0.00
2019-02-24T16:29:04.271Z,0.00
2019-02-24T16:31:08.420Z,0.00
2019-02-24T16:32:08.338Z,0.00
2019-02-24T16:34:12.374Z,0.00
2019-02-24T16:35:12.405Z,0.00
2019-02-24T16:37:15.467Z,0.00
2019-02-24T16:38:15.494Z,0.00
2019-02-24T16:40:18.542Z,0.00
2019-02-24T16:41:18.569Z,0.00
2019-02-24T16:43:20.719Z,0.00
2019-02-24T16:44:20.741Z,0.00
2019-02-24T16:46:23.805Z,0.00
2019-02-24T16:47:23.830Z,0.00
2019-02-24T16:49:16.788Z,0.00
2019-02-24T16:50:16.821Z,0.00
2019-02-24T16:52:18.956Z,0.00
2019-02-24T16:53:18.958Z,0.00
2019-02-24T16:55:22.086Z,0.00
2019-02-24T16:56:22.076Z,0.00
2019-02-24T16:58:25.151Z,0.00
2019-02-24T16:59:25.165Z,0.00
2019-02-24T17:01:28.304Z,0.00
2019-02-24T17:02:28.338Z,0.00
2019-02-24T17:04:31.539Z,0.00
2019-02-24T17:05:31.548Z,0.00
2019-02-24T17:07:34.609Z,0.00
2019-02-24T17:08:34.640Z,0.00
2019-02-24T17:10:36.868Z,0.00
2019-02-24T17:11:36.898Z,0.00
2019-02-24T17:13:40.058Z,0.00
2019-02-24T17:14:40.091Z,0.00
2019-02-24T17:16:43.309Z,0.00
2019-02-24T17:17:43.304Z,0.00
2019-02-24T17:19:35.392Z,0.00
2019-02-24T17:20:35.419Z,0.00
2019-02-24T17:22:37.660Z,0.00
2019-02-24T17:23:37.690Z,0.00
2019-02-24T17:25:40.772Z,0.00
2019-02-24T17:26:40.807Z,0.00
2019-02-24T17:28:42.943Z,0.00
2019-02-24T17:29:42.953Z,0.00
2019-02-24T17:31:45.193Z,0.00
2019-02-24T17:32:45.224Z,0.00
2019-02-24T17:34:47.371Z,0.00
2019-02-24T17:35:47.403Z,0.00
2019-02-24T17:37:51.434Z,0.00
2019-02-24T17:38:51.464Z,0.00
2019-02-24T17:40:54.597Z,0.00
2019-02-24T17:41:54.604Z,0.00
2019-02-24T17:43:57.664Z,0.00
2019-02-24T17:44:57.696Z,0.00
2019-02-24T17:47:00.775Z,0.00
2019-02-24T17:48:00.787Z,0.00
2019-02-24T17:50:02.950Z,0.00
2019-02-24T17:51:02.958Z,0.00
2019-02-24T17:53:06.020Z,0.00
2019-02-24T17:54:06.052Z,0.00
2019-02-24T17:56:10.108Z,0.00
2019-02-24T17:57:10.113Z,0.00
2019-02-24T17:59:02.182Z,0.00
2019-02-24T18:00:02.202Z,0.00
2019-02-24T18:01:02.235Z,0.00
2019-02-24T18:02:02.265Z,0.00
2019-02-24T18:03:02.300Z,0.00
2019-02-24T18:04:02.333Z,0.00
2019-02-24T18:05:02.369Z,0.00
2019-02-24T18:06:02.402Z,0.00
2019-02-24T18:07:02.433Z,0.00
2019-02-24T18:08:02.466Z,0.00
2019-02-24T18:09:02.502Z,0.00
2019-02-24T18:10:02.536Z,0.00
2019-02-24T18:11:02.566Z,0.00
2019-02-24T18:12:02.603Z,0.00
2019-02-24T18:13:02.638Z,0.00
2019-02-24T18:14:02.665Z,0.00
2019-02-24T18:15:02.700Z,0.00
2019-02-24T18:16:02.736Z,0.00
2019-02-24T18:17:02.764Z,0.00
2019-02-24T18:18:02.799Z,0.00
2019-02-24T18:19:02.835Z,0.00
2019-02-24T18:20:02.866Z,0.00
2019-02-24T18:21:02.899Z,0.00
2019-02-24T18:22:02.931Z,0.00
2019-02-24T18:23:02.987Z,0.00
2019-02-24T18:24:02.999Z,0.00
2019-02-24T18:25:03.717Z,0.00
2019-02-24T18:26:03.063Z,0.00
2019-02-24T18:27:03.096Z,0.00
2019-02-24T18:28:03.130Z,0.00